Time;durP1;ratioP1;P1;durP2;ratioP2;P2;SDS_P1;SDS_P2;PMS_P1;PMS_P2;Temp;Humidity;BMP_temperature;BMP_pressure;BME280_temperature;BME280_humidity;BME280_pressure;Samples;Min_cycle;Max_cycle;Signal;HPM_P1;HPM_P2
2022/06/05 00:01:37;;;;;;;16.70;7.80;;;14.20;99.90;14.10;98721.00;;;;5025971;28;86672;-58
2022/06/05 00:04:41;;;;;;;14.65;7.53;;;14.20;99.90;14.00;98720.00;;;;5034559;28;87590;-59
2022/06/05 00:07:55;;;;;;;13.63;6.82;;;14.10;99.90;14.00;98721.00;;;;5008542;28;88163;-58
2022/06/05 00:10:40;;;;;;;12.52;6.60;;;14.00;99.90;13.90;98714.00;;;;5021079;28;88254;-58
2022/06/05 00:13:12;;;;;;;12.25;7.20;;;14.00;99.90;13.90;98712.00;;;;5016667;28;87289;-59
2022/06/05 00:15:39;;;;;;;13.85;7.55;;;14.00;99.90;13.90;98705.00;;;;5031378;28;87868;-59
2022/06/05 00:18:06;;;;;;;11.77;6.97;;;13.90;99.90;13.80;98709.00;;;;5034542;28;88458;-59
2022/06/05 00:20:32;;;;;;;14.68;7.03;;;13.90;99.90;13.90;98702.00;;;;5031034;28;87007;-58
2022/06/05 00:22:58;;;;;;;11.50;7.00;;;13.90;99.90;13.80;98693.00;;;;5027307;28;87017;-58
2022/06/05 00:26:03;;;;;;;9.00;6.68;;;13.90;99.90;13.80;98694.00;;;;5027897;28;87603;-58
2022/06/05 00:29:03;;;;;;;9.88;6.05;;;13.90;99.90;13.80;98683.00;;;;5012882;28;87449;-58
2022/06/05 00:31:51;;;;;;;11.57;6.50;;;13.90;99.90;13.80;98677.00;;;;5017994;28;87216;-57
2022/06/05 00:34:18;;;;;;;11.98;6.30;;;13.90;99.90;13.90;98679.00;;;;5026578;28;86972;-58
2022/06/05 00:37:08;;;;;;;12.05;6.03;;;14.00;99.90;13.90;98677.00;;;;5032944;28;87928;-58
2022/06/05 00:39:37;;;;;;;11.98;5.93;;;14.00;99.90;14.00;98668.00;;;;5038400;28;88460;-58
2022/06/05 00:42:10;;;;;;;12.18;6.60;;;14.00;99.90;14.00;98667.00;;;;5023294;28;87310;-58
2022/06/05 00:44:44;;;;;;;11.70;6.47;;;14.00;99.90;14.00;98663.00;;;;5018299;28;87027;-58
2022/06/05 00:47:18;;;;;;;11.20;6.10;;;14.00;99.90;14.00;98670.00;;;;5011970;28;87550;-60
2022/06/05 00:50:09;;;;;;;10.15;6.28;;;14.00;99.90;14.00;98665.00;;;;5029785;28;87057;-57
2022/06/05 00:52:39;;;;;;;10.40;6.20;;;14.00;99.90;14.00;98664.00;;;;5030136;28;87070;-59
2022/06/05 00:55:07;;;;;;;9.73;6.77;;;14.00;99.90;14.00;98659.00;;;;5028221;28;86255;-58
2022/06/05 00:57:36;;;;;;;10.73;7.00;;;14.00;99.90;14.00;98664.00;;;;5029034;28;87386;-60
2022/06/05 01:00:15;;;;;;;12.32;7.63;;;14.00;99.90;14.10;98666.00;;;;5030767;28;88313;-58
2022/06/05 01:02:44;;;;;;;11.55;7.03;;;14.00;99.90;14.00;98651.00;;;;5009181;28;88487;-58
2022/06/05 01:05:14;;;;;;;12.20;7.28;;;14.00;99.90;14.00;98645.00;;;;5028461;28;86968;-58
2022/06/05 01:07:40;;;;;;;10.95;6.68;;;14.00;99.90;13.90;98646.00;;;;5027710;28;87750;-58
2022/06/05 01:10:09;;;;;;;12.05;7.43;;;13.90;99.90;13.80;98644.00;;;;5038231;28;88248;-59
2022/06/05 01:13:07;;;;;;;12.73;7.00;;;13.90;99.90;13.80;98649.00;;;;5025260;28;86978;-59
2022/06/05 01:16:17;;;;;;;10.40;6.78;;;13.90;99.90;13.80;98652.00;;;;5023085;28;87061;-59
2022/06/05 01:19:18;;;;;;;12.43;6.60;;;13.80;99.90;13.70;98656.00;;;;5020433;28;87821;-59
2022/06/05 01:22:37;;;;;;;9.73;6.60;;;13.80;99.90;13.80;98645.00;;;;4990368;28;87422;-59
2022/06/05 01:25:09;;;;;;;12.30;6.82;;;13.80;99.90;13.80;98656.00;;;;5015289;28;87216;-58
2022/06/05 01:27:40;;;;;;;11.50;7.45;;;13.80;99.90;13.80;98636.00;;;;5033643;28;87031;-59
2022/06/05 01:30:17;;;;;;;15.63;6.68;;;13.80;99.90;13.80;98644.00;;;;5021100;28;88569;-59
2022/06/05 01:33:18;;;;;;;10.85;6.35;;;13.80;99.90;13.80;98647.00;;;;5017364;28;89390;-58
2022/06/05 01:36:13;;;;;;;10.50;6.82;;;13.80;99.90;13.80;98642.00;;;;5019069;28;87035;-58
2022/06/05 01:38:54;;;;;;;12.48;6.43;;;13.90;99.90;13.80;98647.00;;;;5023848;28;86932;-58
2022/06/05 01:41:31;;;;;;;14.85;6.53;;;13.90;99.90;13.90;98642.00;;;;5032841;28;87009;-58
2022/06/05 01:44:00;;;;;;;12.38;6.57;;;13.90;99.90;13.90;98638.00;;;;5016104;28;87729;-59
2022/06/05 01:46:34;;;;;;;9.60;6.40;;;14.00;99.90;14.00;98632.00;;;;5014667;28;87125;-58
2022/06/05 01:49:26;;;;;;;8.98;6.18;;;13.90;99.90;14.00;98625.00;;;;5034325;28;86481;-58
2022/06/05 01:52:13;;;;;;;11.07;6.30;;;14.00;99.90;14.00;98621.00;;;;5034417;28;87678;-57
2022/06/05 01:54:54;;;;;;;12.73;6.63;;;14.00;99.90;14.00;98627.00;;;;5015743;28;87538;-58
2022/06/05 01:57:23;;;;;;;14.23;6.03;;;14.00;99.90;14.10;98625.00;;;;5034643;28;88650;-58
2022/06/05 02:00:00;;;;;;;13.32;6.45;;;14.10;99.90;14.20;98628.00;;;;5018501;28;87046;-58
2022/06/05 02:02:34;;;;;;;10.73;5.80;;;14.20;99.90;14.40;98626.00;;;;5018146;28;87738;-58
2022/06/05 02:05:08;;;;;;;11.27;6.95;;;14.40;99.90;14.70;98620.00;;;;5031314;28;87960;-58
2022/06/05 02:07:46;;;;;;;7.85;5.53;;;14.60;99.90;15.10;98617.00;;;;5013641;28;87116;-58
2022/06/05 02:10:42;;;;;;;12.13;6.25;;;15.00;99.90;15.40;98620.00;;;;5024248;28;86927;-58
2022/06/05 02:13:08;;;;;;;13.38;6.30;;;15.20;99.90;15.60;98620.00;;;;5014630;28;87530;-58
2022/06/05 02:15:34;;;;;;;11.43;5.88;;;15.40;99.90;15.60;98632.00;;;;5036562;28;86264;-58
2022/06/05 02:18:00;;;;;;;10.80;6.10;;;15.40;99.90;15.50;98625.00;;;;5040929;28;87074;-58
2022/06/05 02:20:28;;;;;;;10.23;6.22;;;15.30;99.90;15.30;98612.00;;;;5035228;28;86967;-58
2022/06/05 02:22:54;;;;;;;9.73;6.13;;;15.30;99.90;15.80;98611.00;;;;5030735;28;89745;-59
2022/06/05 02:25:25;;;;;;;14.07;6.82;;;15.80;99.90;16.90;98621.00;;;;5029282;28;86973;-59
2022/06/05 02:27:58;;;;;;;13.73;7.88;;;16.70;99.90;18.10;98612.00;;;;5025141;28;87461;-58
2022/06/05 02:30:33;;;;;;;10.10;5.90;;;17.70;99.90;19.10;98609.00;;;;5031840;28;86986;-58
2022/06/05 02:33:11;;;;;;;9.30;5.82;;;18.60;99.90;20.00;98613.00;;;;5030087;28;87724;-59
2022/06/05 02:35:58;;;;;;;14.70;6.15;;;19.40;99.90;20.40;98608.00;;;;5030668;28;87376;-58
2022/06/05 02:38:51;;;;;;;15.93;6.50;;;19.90;99.90;21.60;98609.00;;;;5027077;28;87177;-59
2022/06/05 02:41:35;;;;;;;11.15;5.90;;;20.90;99.90;22.00;98607.00;;;;5012850;28;86577;-60
2022/06/05 02:44:29;;;;;;;12.63;5.43;;;21.40;99.90;22.40;98609.00;;;;5013037;28;88613;-59
2022/06/05 02:47:10;;;;;;;9.88;5.72;;;21.90;99.90;22.90;98604.00;;;;5033059;28;88647;-59
2022/06/05 02:49:47;;;;;;;8.80;5.47;;;22.40;99.90;23.30;98606.00;;;;5031166;28;88009;-59
2022/06/05 02:52:13;;;;;;;12.10;5.43;;;22.70;99.90;23.60;98603.00;;;;5021915;28;87532;-59
2022/06/05 02:55:12;;;;;;;11.05;6.30;;;23.00;99.90;23.60;98608.00;;;;5009021;28;89457;-59
2022/06/05 02:57:38;;;;;;;14.70;5.82;;;23.00;99.90;23.60;98614.00;;;;5038178;28;87355;-59
2022/06/05 03:00:17;;;;;;;11.98;5.45;;;23.00;99.90;23.80;98604.00;;;;5038047;28;86942;-59
2022/06/05 03:05:28;;;;;;;11.88;5.35;;;23.30;99.90;24.10;98608.00;;;;5031475;28;87702;-60
2022/06/05 03:07:55;;;;;;;8.88;4.78;;;23.60;99.90;24.00;98605.00;;;;5029855;28;87180;-60
2022/06/05 03:10:22;;;;;;;7.13;4.80;;;23.60;99.90;24.30;98595.00;;;;5031939;28;87138;-60
2022/06/05 03:12:48;;;;;;;13.20;5.47;;;23.90;99.90;24.70;98598.00;;;;5032569;28;87478;-60
2022/06/05 03:15:15;;;;;;;13.93;6.05;;;24.20;99.90;25.30;98589.00;;;;5028639;28;88501;-59
2022/06/05 03:17:43;;;;;;;11.45;5.72;;;24.70;99.90;25.50;98595.00;;;;5014447;28;89880;-59
2022/06/05 03:20:11;;;;;;;9.35;4.90;;;24.80;99.90;25.60;98589.00;;;;5015229;28;87606;-59
2022/06/05 03:22:38;;;;;;;8.52;5.03;;;24.90;99.90;26.10;98593.00;;;;5030171;28;87012;-59
2022/06/05 03:25:05;;;;;;;10.60;4.97;;;25.20;99.20;25.70;98588.00;;;;5028955;28;88708;-59
2022/06/05 03:27:31;;;;;;;8.13;4.82;;;24.90;98.40;24.70;98593.00;;;;5030402;28;87332;-59
2022/06/05 03:30:01;;;;;;;13.18;6.15;;;24.00;99.00;23.00;98615.00;;;;5037403;28;88848;-59
2022/06/05 03:32:30;;;;;;;8.65;5.03;;;22.30;99.90;21.80;98603.00;;;;5029397;28;86669;-59
2022/06/05 03:34:56;;;;;;;9.13;5.03;;;21.40;99.90;21.10;98600.00;;;;5028988;28;87710;-59
2022/06/05 03:37:23;;;;;;;8.05;4.70;;;20.70;99.90;20.60;98594.00;;;;5031170;28;87228;-59
2022/06/05 03:39:49;;;;;;;9.90;4.72;;;20.30;99.90;19.90;98603.00;;;;5030560;28;88410;-59
2022/06/05 03:42:15;;;;;;;13.75;5.10;;;19.70;99.90;19.60;98584.00;;;;5031681;28;87013;-59
2022/06/05 03:44:42;;;;;;;8.23;4.50;;;19.30;99.90;19.90;98577.00;;;;5029980;28;87961;-59
2022/06/05 03:47:10;;;;;;;6.43;4.15;;;19.70;99.90;20.60;98578.00;;;;5013080;28;88035;-59
2022/06/05 03:49:37;;;;;;;9.07;4.35;;;20.20;99.90;20.70;98579.00;;;;5012958;28;86951;-59
2022/06/05 03:52:04;;;;;;;9.93;3.90;;;20.20;99.90;20.80;98572.00;;;;5029299;28;87056;-59
2022/06/05 03:54:33;;;;;;;6.90;4.13;;;20.30;99.90;21.10;98582.00;;;;5033922;28;88627;-59
2022/06/05 03:57:01;;;;;;;7.40;3.90;;;20.40;99.90;20.70;98578.00;;;;5027856;28;86294;-61
2022/06/05 03:59:27;;;;;;;9.48;4.30;;;20.10;99.90;19.90;98581.00;;;;5029188;28;88056;-59
2022/06/05 04:01:53;;;;;;;7.35;4.45;;;19.50;99.90;19.20;98585.00;;;;5030998;28;87528;-58
2022/06/05 04:04:19;;;;;;;8.25;4.50;;;18.90;99.90;18.80;98583.00;;;;5027529;28;88549;-60
2022/06/05 04:06:46;;;;;;;15.43;4.90;;;18.60;99.90;19.00;98573.00;;;;5032932;28;88161;-59
2022/06/05 04:09:12;;;;;;;8.57;4.78;;;18.70;99.90;19.60;98573.00;;;;5029730;28;87439;-59
2022/06/05 04:11:39;;;;;;;13.23;5.55;;;19.10;99.90;19.50;98577.00;;;;5027816;28;87037;-60
2022/06/05 04:14:07;;;;;;;9.23;5.57;;;18.90;99.90;18.90;98574.00;;;;5036151;28;87727;-60
2022/06/05 04:16:36;;;;;;;10.88;5.13;;;18.60;99.90;19.60;98561.00;;;;5033825;27;88511;-59
2022/06/05 04:19:03;;;;;;;8.98;4.80;;;19.20;99.90;20.00;98569.00;;;;5033074;28;87483;-59
2022/06/05 04:21:33;;;;;;;10.55;4.85;;;19.40;99.90;19.60;98567.00;;;;5035525;28;86264;-59
2022/06/05 04:24:00;;;;;;;8.15;5.25;;;19.00;99.90;19.30;98571.00;;;;5025254;28;87776;-59
2022/06/05 04:26:30;;;;;;;11.40;5.28;;;18.80;99.90;18.90;98577.00;;;;5030256;28;87226;-59
2022/06/05 04:28:57;;;;;;;11.23;5.70;;;18.40;99.90;18.50;98589.00;;;;5032250;28;88260;-59
2022/06/05 04:31:37;;;;;;;12.15;6.13;;;18.10;99.90;18.00;98572.00;;;;5028401;28;87477;-59
2022/06/05 04:34:09;;;;;;;14.00;6.40;;;17.70;99.90;17.50;98585.00;;;;5029500;28;87530;-59
2022/06/05 04:36:35;;;;;;;12.38;6.47;;;17.10;99.90;16.40;98595.00;;;;5009807;28;87492;-60
2022/06/05 04:39:02;;;;;;;11.20;5.82;;;16.20;99.90;16.00;98583.00;;;;5035944;28;87519;-60
2022/06/05 04:41:30;;;;;;;12.07;5.45;;;15.80;99.90;16.00;98593.00;;;;5028622;28;87141;-58
2022/06/05 04:43:57;;;;;;;7.18;5.00;;;15.80;99.90;15.60;98588.00;;;;5034263;28;87559;-59
2022/06/05 04:46:27;;;;;;;14.77;5.80;;;15.40;99.90;15.70;98588.00;;;;5031067;28;88392;-59
2022/06/05 04:48:53;;;;;;;13.13;5.78;;;15.50;99.90;15.60;98592.00;;;;5028343;28;87062;-59
2022/06/05 04:51:21;;;;;;;8.00;4.70;;;15.40;99.90;15.20;98601.00;;;;5013228;28;87835;-58
2022/06/05 04:53:51;;;;;;;9.27;4.75;;;15.00;99.90;14.80;98624.00;;;;5028097;28;89369;-58
2022/06/05 04:56:23;;;;;;;9.40;5.00;;;14.60;99.90;14.50;98624.00;;;;5026211;28;88225;-57
2022/06/05 04:58:49;;;;;;;7.25;3.80;;;14.40;99.90;14.20;98621.00;;;;5032056;28;87547;-59
2022/06/05 05:01:27;;;;;;;8.75;3.60;;;14.10;99.90;13.80;98608.00;;;;5031386;27;89004;-58
2022/06/05 05:04:01;;;;;;;9.65;3.88;;;13.60;99.90;13.50;98607.00;;;;5028947;28;87514;-58
2022/06/05 05:06:29;;;;;;;6.13;3.42;;;13.40;99.90;13.30;98634.00;;;;5032110;28;87113;-60
2022/06/05 05:08:56;;;;;;;4.75;3.47;;;13.30;99.90;13.20;98633.00;;;;5032596;28;87006;-60
2022/06/05 05:11:23;;;;;;;5.03;3.20;;;13.10;99.90;13.00;98649.00;;;;5035808;28;86344;-59
2022/06/05 05:13:50;;;;;;;10.18;3.08;;;12.90;99.90;12.90;98654.00;;;;5030445;28;87989;-57
2022/06/05 05:16:16;;;;;;;6.53;3.40;;;12.80;99.90;12.70;98652.00;;;;5014422;28;87472;-60
2022/06/05 05:18:43;;;;;;;4.80;3.22;;;12.60;99.90;12.70;98654.00;;;;5031274;28;88389;-59
2022/06/05 05:21:16;;;;;;;5.15;2.58;;;12.60;99.90;12.60;98653.00;;;;5034482;28;87058;-58
2022/06/05 05:23:44;;;;;;;5.15;2.60;;;12.60;99.90;12.50;98647.00;;;;5030591;28;87808;-59
2022/06/05 05:26:13;;;;;;;5.57;3.15;;;12.50;99.90;12.30;98641.00;;;;5032520;28;87238;-58
2022/06/05 05:28:40;;;;;;;5.53;3.17;;;12.30;99.90;12.20;98643.00;;;;5032308;28;87229;-59
2022/06/05 05:31:10;;;;;;;11.63;3.63;;;12.20;99.90;12.10;98642.00;;;;5032405;28;87451;-58
2022/06/05 05:33:39;;;;;;;6.30;3.53;;;12.00;99.90;12.00;98640.00;;;;5030947;28;87645;-59
2022/06/05 05:36:06;;;;;;;7.43;3.50;;;12.00;99.90;12.00;98640.00;;;;5033230;28;87414;-60
2022/06/05 05:38:33;;;;;;;7.57;4.10;;;12.00;99.90;11.90;98637.00;;;;5032960;28;86911;-58
2022/06/05 05:43:44;;;;;;;7.43;4.43;;;11.80;99.90;11.80;98631.00;;;;5034966;28;88547;-60
2022/06/05 05:46:12;;;;;;;7.10;4.30;;;11.80;99.90;11.70;98619.00;;;;5034317;28;88333;-60
2022/06/05 05:48:39;;;;;;;5.28;4.40;;;11.70;99.90;11.70;98625.00;;;;5033502;28;88242;-59
2022/06/05 05:51:13;;;;;;;5.00;4.00;;;11.70;99.90;11.70;98617.00;;;;5030310;28;87096;-57
2022/06/05 05:53:41;;;;;;;5.25;4.00;;;11.70;99.90;11.70;98597.00;;;;5035183;28;87671;-59
2022/06/05 05:56:12;;;;;;;5.47;4.05;;;11.70;99.90;11.80;98595.00;;;;5032515;28;87454;-59
2022/06/05 05:58:40;;;;;;;10.02;3.78;;;11.80;99.90;12.00;98606.00;;;;5031500;28;87340;-60
2022/06/05 06:01:10;;;;;;;4.93;4.00;;;12.00;99.90;12.20;98599.00;;;;5030696;28;86544;-59
2022/06/05 06:03:36;;;;;;;6.45;3.60;;;12.20;99.90;12.40;98604.00;;;;5018399;28;87366;-59
2022/06/05 06:06:03;;;;;;;7.25;3.97;;;12.40;99.90;12.60;98583.00;;;;5025423;28;87267;-59
2022/06/05 06:08:31;;;;;;;6.95;4.45;;;12.60;99.90;12.80;98591.00;;;;5027157;28;87994;-58
2022/06/05 06:10:57;;;;;;;7.53;3.78;;;12.80;99.90;12.90;98589.00;;;;5039435;27;87112;-58
2022/06/05 06:13:23;;;;;;;5.72;4.03;;;12.90;99.90;13.10;98592.00;;;;5032241;28;87678;-60
2022/06/05 06:15:50;;;;;;;5.30;3.70;;;13.10;99.90;13.40;98592.00;;;;5035031;28;87034;-60
2022/06/05 06:18:17;;;;;;;7.35;4.40;;;13.30;99.90;13.50;98587.00;;;;5021249;28;87121;-60
2022/06/05 06:20:46;;;;;;;5.72;3.97;;;13.40;99.90;13.90;98571.00;;;;5033464;28;87139;-60
2022/06/05 06:23:14;;;;;;;6.03;3.80;;;13.80;99.90;14.50;98576.00;;;;5031360;28;87628;-59
2022/06/05 06:25:41;;;;;;;5.22;3.60;;;14.40;99.90;15.10;98565.00;;;;5032147;28;88276;-59
2022/06/05 06:28:08;;;;;;;6.60;4.82;;;15.00;99.90;15.20;98573.00;;;;5027126;28;87286;-58
2022/06/05 06:30:35;;;;;;;9.77;4.28;;;15.00;99.90;15.10;98563.00;;;;5010472;28;87242;-59
2022/06/05 06:33:03;;;;;;;6.25;3.92;;;15.10;99.90;14.90;98568.00;;;;5030634;28;89444;-55
2022/06/05 06:35:29;;;;;;;9.10;4.40;;;14.90;99.90;15.00;98574.00;;;;5033327;28;89472;-54
2022/06/05 06:37:55;;;;;;;8.18;3.67;;;15.00;99.90;15.10;98568.00;;;;5030294;28;86943;-55
2022/06/05 06:40:22;;;;;;;6.72;3.75;;;15.20;99.90;15.20;98580.00;;;;5029233;28;87242;-58
2022/06/05 06:42:48;;;;;;;5.07;3.70;;;15.30;99.90;15.20;98568.00;;;;5012962;28;87744;-57
2022/06/05 06:45:14;;;;;;;5.03;3.70;;;15.40;99.90;15.40;98571.00;;;;5034913;28;88031;-55
2022/06/05 06:47:40;;;;;;;8.93;4.03;;;15.50;99.90;15.20;98587.00;;;;5026602;28;88391;-57
2022/06/05 06:50:07;;;;;;;6.47;3.83;;;15.40;99.90;15.50;98587.00;;;;5030870;28;86336;-52
2022/06/05 06:52:36;;;;;;;5.07;3.80;;;15.50;99.90;15.40;98587.00;;;;5033524;28;87205;-57
2022/06/05 06:55:05;;;;;;;5.35;3.83;;;15.30;99.90;15.30;98592.00;;;;5027852;27;88445;-57
2022/06/05 06:57:31;;;;;;;8.05;4.70;;;15.20;99.90;14.90;98592.00;;;;5033263;28;89519;-55
2022/06/05 06:59:57;;;;;;;6.40;4.90;;;14.70;99.90;14.70;98582.00;;;;5015025;28;87184;-55
2022/06/05 07:02:23;;;;;;;6.28;4.93;;;14.60;99.90;15.00;98586.00;;;;5031035;28;87714;-55
2022/06/05 07:04:49;;;;;;;8.05;4.80;;;14.90;99.90;15.20;98583.00;;;;5018147;28;87995;-57
2022/06/05 07:07:16;;;;;;;5.50;4.43;;;15.00;99.90;14.90;98589.00;;;;5034959;28;88907;-58
2022/06/05 07:09:42;;;;;;;5.97;4.35;;;14.90;99.90;15.00;98594.00;;;;5030924;28;87095;-58
2022/06/05 07:12:08;;;;;;;7.35;4.40;;;14.80;99.90;15.00;98601.00;;;;5027711;28;87114;-57
2022/06/05 07:14:34;;;;;;;5.63;4.03;;;14.80;99.90;14.60;98606.00;;;;5032218;28;88487;-57
2022/06/05 07:17:00;;;;;;;7.43;4.07;;;14.50;99.90;14.70;98594.00;;;;5035935;28;87485;-55
2022/06/05 07:19:26;;;;;;;5.82;3.30;;;14.70;99.90;14.70;98599.00;;;;5033806;28;87685;-56
2022/06/05 07:21:53;;;;;;;7.05;3.78;;;14.60;99.90;14.80;98612.00;;;;5033578;28;89519;-56
2022/06/05 07:24:19;;;;;;;6.68;3.58;;;14.70;99.90;14.80;98606.00;;;;5032371;28;88414;-56
2022/06/05 07:26:45;;;;;;;6.53;3.20;;;14.70;99.90;14.60;98612.00;;;;5029473;28;87458;-53
2022/06/05 07:29:11;;;;;;;5.00;3.45;;;14.50;99.90;14.80;98603.00;;;;5031210;28;87561;-58
2022/06/05 07:31:37;;;;;;;9.95;3.67;;;14.70;99.90;15.20;98599.00;;;;5032530;28;88630;-57
2022/06/05 07:34:08;;;;;;;6.65;3.03;;;15.10;99.90;15.20;98610.00;;;;5025278;28;88817;-57
2022/06/05 07:36:34;;;;;;;4.47;3.03;;;15.00;99.90;15.00;98595.00;;;;5038214;28;87026;-58
2022/06/05 07:39:02;;;;;;;4.15;2.58;;;14.90;99.90;15.10;98597.00;;;;5038372;28;86300;-54
2022/06/05 07:41:33;;;;;;;5.32;2.97;;;15.10;99.90;15.10;98592.00;;;;5032572;28;88688;-59
2022/06/05 07:44:00;;;;;;;5.23;3.03;;;15.10;99.90;15.40;98584.00;;;;5023702;28;87116;-58
2022/06/05 07:46:29;;;;;;;5.25;3.13;;;15.40;99.90;15.60;98595.00;;;;5029820;28;87828;-57
2022/06/05 07:48:55;;;;;;;3.80;3.22;;;15.40;99.90;15.30;98601.00;;;;5027326;28;87321;-58
2022/06/05 07:54:27;;;;;;;4.15;2.80;;;15.10;99.90;15.10;98611.00;;;;5021231;28;88712;-58
2022/06/05 07:57:08;;;;;;;7.43;2.97;;;15.10;99.90;14.90;98619.00;;;;5030789;28;87632;-59
2022/06/05 07:59:39;;;;;;;3.88;2.80;;;14.90;99.90;14.70;98609.00;;;;5027298;28;87459;-58
2022/06/05 08:02:18;;;;;;;4.22;2.42;;;14.60;99.90;14.60;98612.00;;;;5031969;27;88762;-58
2022/06/05 08:04:45;;;;;;;4.63;2.60;;;14.50;99.90;14.80;98626.00;;;;5007340;28;87242;-58
2022/06/05 08:07:16;;;;;;;5.28;2.95;;;14.70;99.90;14.60;98613.00;;;;5034186;28;87424;-58
2022/06/05 08:09:44;;;;;;;4.63;2.38;;;14.50;99.90;14.40;98610.00;;;;5034305;28;87225;-58
2022/06/05 08:12:13;;;;;;;3.17;2.08;;;14.40;99.90;14.50;98615.00;;;;5031906;28;88878;-58
2022/06/05 08:14:42;;;;;;;2.65;1.95;;;14.30;99.90;14.50;98613.00;;;;5019900;28;88280;-58
2022/06/05 08:17:13;;;;;;;3.58;2.10;;;14.40;99.90;14.60;98619.00;;;;5038542;28;86965;-59
2022/06/05 08:19:41;;;;;;;4.47;1.95;;;14.40;99.90;14.70;98616.00;;;;5038340;28;86857;-59
2022/06/05 08:22:13;;;;;;;4.95;2.15;;;14.50;99.90;14.80;98615.00;;;;5016061;28;88705;-59
2022/06/05 08:24:40;;;;;;;3.05;2.22;;;14.70;99.90;15.00;98609.00;;;;5016196;28;88524;-59
2022/06/05 08:27:10;;;;;;;3.83;1.80;;;14.80;99.90;15.20;98606.00;;;;5026166;28;86973;-59
2022/06/05 08:29:36;;;;;;;4.13;1.80;;;15.00;99.90;15.50;98608.00;;;;5033387;28;87497;-59
2022/06/05 08:32:05;;;;;;;3.30;1.75;;;15.30;99.90;15.30;98609.00;;;;5030948;28;88168;-58
2022/06/05 08:34:31;;;;;;;3.17;1.50;;;15.10;99.90;15.40;98605.00;;;;5025884;28;88482;-57
2022/06/05 08:42:43;;;;;;;4.03;2.05;;;15.70;99.90;16.10;98600.00;;;;5038021;28;87654;-59
2022/06/05 08:45:37;;;;;;;3.45;1.85;;;15.90;99.90;15.50;98605.00;;;;5024245;28;87765;-57
2022/06/05 08:48:11;;;;;;;2.97;1.70;;;15.60;99.90;15.60;98598.00;;;;5023458;28;87107;-58
2022/06/05 08:50:50;;;;;;;2.92;1.60;;;15.60;99.90;16.00;98595.00;;;;5013043;28;89134;-57
2022/06/05 08:53:47;;;;;;;1.95;1.38;;;15.80;99.90;16.40;98608.00;;;;5037434;28;87657;-58
2022/06/05 08:56:30;;;;;;;3.70;1.45;;;16.20;99.90;16.50;98588.00;;;;5019481;28;87856;-56
2022/06/05 08:59:07;;;;;;;1.67;1.20;;;16.30;99.90;16.80;98599.00;;;;5016883;28;87162;-57
2022/06/05 09:02:00;;;;;;;2.13;1.38;;;16.50;99.90;16.80;98595.00;;;;5014610;28;87156;-59
2022/06/05 09:04:45;;;;;;;1.65;1.23;;;16.50;99.90;16.20;98601.00;;;;5031839;28;91674;-57
2022/06/05 09:07:22;;;;;;;3.42;1.45;;;16.00;99.90;16.00;98595.00;;;;5019531;28;88832;-59
2022/06/05 09:10:16;;;;;;;2.00;1.35;;;15.80;99.90;15.80;98603.00;;;;5021625;28;87386;-59
2022/06/05 09:12:55;;;;;;;4.53;1.65;;;15.60;99.90;15.70;98603.00;;;;5017715;28;87245;-59
2022/06/05 09:15:26;;;;;;;3.58;1.40;;;15.60;99.90;15.80;98590.00;;;;5032866;28;88698;-58
2022/06/05 09:17:57;;;;;;;5.70;1.27;;;15.60;99.90;15.80;98592.00;;;;5041355;28;87399;-59
2022/06/05 09:20:56;;;;;;;4.32;1.42;;;15.60;99.90;16.00;98585.00;;;;5037347;28;87091;-57
2022/06/05 09:23:44;;;;;;;8.60;1.60;;;15.80;99.90;16.50;98583.00;;;;5018217;28;87152;-57
2022/06/05 09:26:19;;;;;;;3.55;1.55;;;16.30;99.90;16.90;98584.00;;;;5033642;28;88391;-58
2022/06/05 09:29:14;;;;;;;3.50;1.65;;;16.70;99.90;17.10;98585.00;;;;4989096;28;88418;-58
2022/06/05 09:32:06;;;;;;;2.97;1.63;;;17.00;99.90;16.90;98596.00;;;;5032249;28;87955;-57
2022/06/05 09:34:54;;;;;;;3.55;1.45;;;16.80;99.90;16.70;98608.00;;;;5039527;28;88662;-58
2022/06/05 09:38:02;;;;;;;3.83;1.52;;;16.50;99.90;16.30;98589.00;;;;5010999;28;88759;-56
2022/06/05 09:40:38;;;;;;;2.28;1.30;;;16.20;99.90;16.50;98588.00;;;;5029424;28;87390;-57
2022/06/05 09:43:47;;;;;;;2.80;1.30;;;16.40;99.90;16.30;98592.00;;;;5034735;28;87118;-56
2022/06/05 09:46:45;;;;;;;1.70;1.00;;;16.10;99.90;16.40;98599.00;;;;5023244;28;87644;-59
2022/06/05 09:49:32;;;;;;;2.50;1.15;;;16.30;99.90;16.70;98606.00;;;;5022093;28;87589;-58
2022/06/05 09:52:21;;;;;;;0.98;0.77;;;16.50;99.90;16.30;98603.00;;;;5032580;28;87298;-56
2022/06/05 09:55:08;;;;;;;3.17;1.00;;;16.10;99.90;16.30;98595.00;;;;5036885;28;88318;-58
2022/06/05 09:58:25;;;;;;;1.77;1.10;;;16.30;99.90;16.70;98601.00;;;;5036248;28;87015;-59
2022/06/05 10:01:03;;;;;;;2.28;1.00;;;16.50;99.90;16.50;98603.00;;;;5035778;28;88571;-58
2022/06/05 10:03:37;;;;;;;2.45;1.20;;;16.40;99.90;15.90;98609.00;;;;5012907;28;89552;-57
2022/06/05 10:06:20;;;;;;;3.28;0.98;;;16.00;99.90;16.20;98590.00;;;;5019706;28;87749;-58
2022/06/05 10:09:04;;;;;;;1.17;0.90;;;16.10;99.90;16.40;98592.00;;;;5021738;28;87739;-59
2022/06/05 10:12:03;;;;;;;2.33;1.33;;;16.20;99.90;16.40;98597.00;;;;5037199;28;87910;-57
2022/06/05 10:15:04;;;;;;;1.55;1.05;;;16.20;99.90;16.50;98604.00;;;;5038653;28;87395;-58
2022/06/05 10:17:56;;;;;;;1.38;1.05;;;16.40;99.90;16.40;98588.00;;;;5019935;28;87110;-59
2022/06/05 10:20:44;;;;;;;4.68;1.23;;;16.20;99.90;16.20;98599.00;;;;5020866;28;86706;-57
2022/06/05 10:23:39;;;;;;;3.83;1.40;;;16.10;99.90;15.90;98613.00;;;;5031935;28;88698;-59
2022/06/05 10:26:25;;;;;;;1.98;0.90;;;16.00;99.90;15.80;98584.00;;;;5027472;28;88348;-59
2022/06/05 10:29:20;;;;;;;1.08;0.98;;;15.80;99.90;15.60;98593.00;;;;5033269;28;88431;-54
2022/06/05 10:32:50;;;;;;;1.00;0.90;;;15.60;99.90;15.60;98601.00;;;;5015974;28;87132;-56
2022/06/05 10:35:53;;;;;;;1.13;0.75;;;15.60;99.90;15.70;98589.00;;;;4958531;28;87731;-60
2022/06/05 10:38:47;;;;;;;2.00;1.08;;;15.60;99.90;15.70;98588.00;;;;4932648;28;87334;-60
2022/06/05 10:41:49;;;;;;;1.10;0.77;;;15.50;99.90;15.60;98587.00;;;;5035194;28;87963;-61
2022/06/05 12:13:30;;;;;;;3.70;1.85;;;15.80;99.90;16.30;98554.00;;;;5024923;27;82865;-58
2022/06/05 12:16:00;;;;;;;3.38;1.70;;;16.10;99.90;16.50;98552.00;;;;4989921;28;82164;-57
2022/06/05 12:18:49;;;;;;;3.25;1.73;;;16.50;99.90;16.70;98560.00;;;;4984877;28;82335;-59
2022/06/05 12:21:36;;;;;;;2.20;1.80;;;16.70;99.90;17.00;98561.00;;;;5019977;28;81510;-58
2022/06/05 12:24:13;;;;;;;4.47;1.83;;;16.90;99.90;16.90;98552.00;;;;4977964;28;83013;-57
2022/06/05 12:27:01;;;;;;;3.00;1.67;;;16.80;99.90;17.00;98558.00;;;;4983882;28;82725;-59
2022/06/05 12:29:42;;;;;;;2.40;1.65;;;16.90;99.90;17.00;98555.00;;;;4996724;28;87548;-58
2022/06/05 12:32:45;;;;;;;5.32;2.17;;;17.00;99.90;17.10;98543.00;;;;5014917;28;82117;-55
2022/06/05 12:35:28;;;;;;;10.50;2.13;;;17.00;99.90;17.30;98555.00;;;;5013132;28;82517;-58
2022/06/05 12:38:49;;;;;;;10.02;2.45;;;17.20;99.90;17.30;98557.00;;;;4980470;28;83318;-57
2022/06/05 12:41:23;;;;;;;2.37;1.90;;;17.20;99.90;17.40;98548.00;;;;4946641;28;82313;-57
2022/06/05 12:44:26;;;;;;;3.53;2.00;;;17.30;99.90;17.50;98544.00;;;;4945451;28;82839;-57
2022/06/05 12:47:05;;;;;;;2.45;1.92;;;17.30;99.90;17.40;98564.00;;;;4954291;28;81751;-57
2022/06/05 12:50:11;;;;;;;2.53;1.85;;;17.30;99.90;17.50;98556.00;;;;4977748;28;81629;-55
2022/06/05 12:52:58;;;;;;;7.63;2.55;;;17.40;99.90;17.50;98559.00;;;;4955261;28;83249;-56
2022/06/05 12:55:25;;;;;;;3.90;1.73;;;17.40;99.90;17.70;98552.00;;;;4976555;28;82191;-54
2022/06/05 12:58:14;;;;;;;5.68;2.40;;;17.60;99.90;17.70;98542.00;;;;4945713;28;82420;-58
2022/06/05 13:01:01;;;;;;;2.95;2.20;;;17.50;99.90;18.00;98536.00;;;;4977698;28;81795;-56
2022/06/05 13:03:36;;;;;;;4.05;1.83;;;17.90;99.90;18.40;98539.00;;;;4948016;28;82370;-54
2022/06/05 13:06:27;;;;;;;2.80;2.10;;;18.20;99.90;18.80;98531.00;;;;4945178;28;81872;-57
2022/06/05 13:09:06;;;;;;;2.90;2.00;;;18.60;99.90;18.70;98557.00;;;;4943624;28;81507;-63
2022/06/05 13:11:42;;;;;;;4.85;2.35;;;18.40;99.90;18.30;98559.00;;;;4938136;28;82392;-57
2022/06/05 13:14:26;;;;;;;4.60;2.08;;;18.20;99.90;18.10;98574.00;;;;4978329;28;82817;-56